Time;durP1;ratioP1;P1;durP2;ratioP2;P2;SDS_P1;SDS_P2;PMS_P1;PMS_P2;Temp;Humidity;BMP_temperature;BMP_pressure;BME280_temperature;BME280_humidity;BME280_pressure;Samples;Min_cycle;Max_cycle;Signal;HPM_P1;HPM_P2
2021/01/18 00:01:01;;;;;;;9.35;6.07;;;;;;;;;;4775703;30;20220;-84
2021/01/18 00:03:28;;;;;;;7.68;5.72;;;;;;;;;;4776105;30;20192;-85
2021/01/18 00:05:56;;;;;;;7.75;6.20;;;;;;;;;;4775839;30;20188;-84
2021/01/18 00:08:22;;;;;;;7.00;5.80;;;;;;;;;;4775551;30;20631;-86
2021/01/18 00:10:49;;;;;;;19.55;11.63;;;;;;;;;;4775598;30;20211;-85
2021/01/18 00:13:16;;;;;;;7.38;5.93;;;;;;;;;;4776003;30;20203;-85
2021/01/18 00:15:43;;;;;;;11.60;6.07;;;;;;;;;;4775979;30;20197;-85
2021/01/18 00:18:10;;;;;;;14.15;7.18;;;;;;;;;;4775399;30;20265;-85
2021/01/18 00:20:37;;;;;;;8.45;6.43;;;;;;;;;;4774390;30;20288;-85
2021/01/18 00:23:05;;;;;;;9.45;6.47;;;;;;;;;;4775048;30;20222;-86
2021/01/18 00:25:32;;;;;;;9.30;6.65;;;;;;;;;;4775747;30;20210;-85
2021/01/18 00:27:59;;;;;;;10.80;6.72;;;;;;;;;;4775433;30;20203;-85
2021/01/18 00:30:26;;;;;;;12.82;6.20;;;;;;;;;;4775413;30;20216;-84
2021/01/18 00:32:53;;;;;;;12.80;6.35;;;;;;;;;;4775361;30;20235;-84
2021/01/18 00:35:21;;;;;;;8.77;5.93;;;;;;;;;;4775526;30;20211;-84
2021/01/18 00:37:50;;;;;;;10.55;6.00;;;;;;;;;;4775364;30;20184;-86
2021/01/18 00:40:22;;;;;;;8.23;5.63;;;;;;;;;;4774918;30;20271;-86
2021/01/18 00:42:49;;;;;;;7.80;5.00;;;;;;;;;;4775162;30;20215;-87
2021/01/18 00:45:18;;;;;;;8.75;4.55;;;;;;;;;;4775276;30;20198;-85
2021/01/18 00:47:48;;;;;;;8.70;4.68;;;;;;;;;;4775185;30;20189;-86
2021/01/18 00:50:16;;;;;;;11.50;4.97;;;;;;;;;;4774675;30;20236;-86
2021/01/18 00:52:45;;;;;;;9.93;4.85;;;;;;;;;;4775373;30;20212;-86
2021/01/18 00:55:16;;;;;;;6.50;3.92;;;;;;;;;;4775738;30;20523;-87
2021/01/18 00:57:44;;;;;;;6.60;4.82;;;;;;;;;;4775801;30;20200;-87
2021/01/18 01:00:14;;;;;;;8.35;4.32;;;;;;;;;;4775460;30;20265;-87
2021/01/18 01:02:43;;;;;;;5.03;3.58;;;;;;;;;;4775095;30;20494;-88
2021/01/18 01:05:12;;;;;;;12.00;4.97;;;;;;;;;;4775281;30;20188;-86
2021/01/18 01:07:41;;;;;;;4.78;3.78;;;;;;;;;;4775012;30;20202;-84
2021/01/18 01:10:10;;;;;;;6.20;3.85;;;;;;;;;;4775196;30;20257;-87
2021/01/18 01:12:37;;;;;;;13.88;5.28;;;;;;;;;;4775806;30;20314;-88
2021/01/18 01:15:08;;;;;;;12.73;4.90;;;;;;;;;;4775439;30;20206;-87
2021/01/18 01:17:41;;;;;;;10.30;4.07;;;;;;;;;;4775431;30;20223;-88
2021/01/18 01:20:10;;;;;;;10.80;4.95;;;;;;;;;;4775170;30;20235;-90
2021/01/18 01:22:38;;;;;;;8.43;4.38;;;;;;;;;;4775362;30;20507;-89
2021/01/18 01:25:07;;;;;;;8.25;5.03;;;;;;;;;;4775564;30;20204;-89
2021/01/18 01:27:34;;;;;;;13.25;4.90;;;;;;;;;;4775099;30;20248;-88
2021/01/18 01:30:01;;;;;;;9.23;4.20;;;;;;;;;;4775019;30;20188;-88
2021/01/18 01:32:28;;;;;;;13.20;5.80;;;;;;;;;;4774893;30;20197;-88
2021/01/18 01:34:55;;;;;;;11.57;5.63;;;;;;;;;;4775096;30;20199;-89
2021/01/18 01:37:22;;;;;;;8.63;3.85;;;;;;;;;;4775478;30;20280;-90
2021/01/18 01:39:49;;;;;;;7.53;4.15;;;;;;;;;;4774962;30;20230;-90
2021/01/18 01:42:20;;;;;;;10.38;4.55;;;;;;;;;;4775147;30;20603;-89
2021/01/18 01:44:47;;;;;;;10.55;5.40;;;;;;;;;;4775126;30;20203;-89
2021/01/18 01:47:27;;;;;;;9.65;4.22;;;;;;;;;;4775153;30;20455;-88
2021/01/18 01:49:55;;;;;;;8.65;4.60;;;;;;;;;;4774672;30;20243;-90
2021/01/18 01:52:24;;;;;;;6.93;3.30;;;;;;;;;;4775065;30;20210;-90
2021/01/18 01:54:56;;;;;;;7.88;3.60;;;;;;;;;;4775193;30;20192;-91
2021/01/18 01:57:24;;;;;;;5.55;2.63;;;;;;;;;;4775479;30;20501;-90
2021/01/18 01:59:52;;;;;;;8.40;3.72;;;;;;;;;;4780238;30;20290;-91
2021/01/18 02:02:20;;;;;;;4.68;2.45;;;;;;;;;;4792948;30;20223;-90
2021/01/18 02:04:48;;;;;;;5.80;3.28;;;;;;;;;;4792919;30;20199;-90
2021/01/18 02:07:25;;;;;;;9.65;3.30;;;;;;;;;;4793180;30;20196;-91
2021/01/18 02:09:53;;;;;;;4.20;2.53;;;;;;;;;;4793152;30;20302;-91
2021/01/18 02:12:21;;;;;;;6.55;3.10;;;;;;;;;;4792704;30;20466;-89
2021/01/18 02:15:11;;;;;;;9.15;2.95;;;;;;;;;;4793283;30;20222;-91
2021/01/18 02:18:12;;;;;;;7.65;3.55;;;;;;;;;;4793542;30;20212;-93
2021/01/18 02:21:46;;;;;;;11.60;3.65;;;;;;;;;;4792761;29;20239;-90
2021/01/18 02:25:13;;;;;;;6.18;2.90;;;;;;;;;;4738390;30;20213;-91
2021/01/18 02:28:35;;;;;;;4.78;2.72;;;;;;;;;;4738077;30;20216;-92
2021/01/18 02:31:43;;;;;;;10.30;4.95;;;;;;;;;;4735153;30;20213;-90
2021/01/18 02:34:53;;;;;;;12.77;3.88;;;;;;;;;;4738092;30;20209;-90
2021/01/18 02:37:52;;;;;;;5.22;4.07;;;;;;;;;;4738100;30;20231;-90
2021/01/18 02:40:28;;;;;;;10.05;3.28;;;;;;;;;;4737172;30;20213;-91
2021/01/18 02:42:59;;;;;;;7.82;3.78;;;;;;;;;;4739157;30;20294;-91
2021/01/18 02:45:27;;;;;;;4.93;2.30;;;;;;;;;;4741957;30;20220;-90
2021/01/18 02:47:54;;;;;;;8.18;4.18;;;;;;;;;;4743864;30;20205;-90
2021/01/18 02:50:22;;;;;;;5.57;2.50;;;;;;;;;;4742240;30;20612;-90
2021/01/18 02:52:50;;;;;;;11.30;3.22;;;;;;;;;;4742294;30;20213;-89
2021/01/18 02:55:17;;;;;;;7.30;3.63;;;;;;;;;;4740802;30;20215;-91
2021/01/18 02:57:48;;;;;;;6.63;3.28;;;;;;;;;;4740814;30;20280;-90
2021/01/18 03:00:22;;;;;;;11.43;3.75;;;;;;;;;;4773709;30;20512;-89
2021/01/18 03:02:59;;;;;;;11.68;4.00;;;;;;;;;;4740983;30;20610;-90
2021/01/18 03:05:35;;;;;;;10.90;3.72;;;;;;;;;;4741515;30;20227;-90
2021/01/18 03:08:20;;;;;;;8.52;3.28;;;;;;;;;;4740948;30;20219;-90
2021/01/18 03:10:55;;;;;;;9.82;3.08;;;;;;;;;;4740624;30;20194;-90
2021/01/18 03:13:30;;;;;;;9.48;3.38;;;;;;;;;;4741246;30;20220;-91
2021/01/18 03:16:02;;;;;;;9.75;2.72;;;;;;;;;;4740513;30;20583;-90
2021/01/18 03:18:33;;;;;;;10.85;3.63;;;;;;;;;;4741152;30;20210;-89
2021/01/18 03:21:01;;;;;;;13.98;3.17;;;;;;;;;;4740906;30;20221;-90
2021/01/18 03:23:29;;;;;;;9.65;3.22;;;;;;;;;;4740932;30;20225;-90
2021/01/18 03:25:57;;;;;;;8.65;2.88;;;;;;;;;;4740402;30;20208;-90
2021/01/18 03:28:25;;;;;;;8.52;2.65;;;;;;;;;;4740465;30;20209;-89
2021/01/18 03:30:53;;;;;;;6.57;3.28;;;;;;;;;;4740414;30;20205;-90
2021/01/18 03:33:24;;;;;;;6.90;3.25;;;;;;;;;;4741080;30;20211;-89
2021/01/18 03:35:51;;;;;;;7.32;2.88;;;;;;;;;;4740643;30;20302;-89
2021/01/18 03:38:22;;;;;;;10.02;3.50;;;;;;;;;;4711510;30;20197;-90
2021/01/18 03:40:50;;;;;;;10.90;2.85;;;;;;;;;;4778229;30;20215;-89
2021/01/18 03:43:20;;;;;;;10.98;4.13;;;;;;;;;;4794886;30;20569;-90
2021/01/18 03:45:48;;;;;;;4.55;2.33;;;;;;;;;;4795777;30;20215;-91
2021/01/18 03:48:15;;;;;;;8.02;2.70;;;;;;;;;;4795207;30;20219;-90
2021/01/18 03:50:42;;;;;;;9.00;2.75;;;;;;;;;;4794189;29;20309;-91
2021/01/18 03:53:10;;;;;;;6.80;3.05;;;;;;;;;;4794736;30;20191;-90
2021/01/18 03:55:38;;;;;;;3.67;2.13;;;;;;;;;;4793786;29;20196;-90
2021/01/18 03:58:06;;;;;;;5.53;2.35;;;;;;;;;;4794626;30;20208;-90
2021/01/18 04:00:35;;;;;;;9.98;3.22;;;;;;;;;;4795042;30;20580;-91
2021/01/18 04:03:03;;;;;;;5.78;2.67;;;;;;;;;;4794402;30;20222;-91
2021/01/18 04:05:30;;;;;;;6.90;2.53;;;;;;;;;;4795365;30;20242;-90
2021/01/18 04:07:57;;;;;;;5.50;2.28;;;;;;;;;;4794927;30;20204;-89
2021/01/18 04:10:26;;;;;;;15.00;3.75;;;;;;;;;;4794499;30;20187;-91
2021/01/18 04:12:54;;;;;;;10.60;2.72;;;;;;;;;;4794557;30;20233;-91
2021/01/18 04:15:27;;;;;;;5.53;2.47;;;;;;;;;;4794987;30;20283;-90
2021/01/18 04:17:55;;;;;;;9.00;3.25;;;;;;;;;;4793996;30;20510;-90
2021/01/18 04:20:23;;;;;;;10.60;2.60;;;;;;;;;;4793445;29;20224;-90
2021/01/18 04:22:51;;;;;;;5.53;2.80;;;;;;;;;;4793895;30;20624;-91
2021/01/18 04:25:29;;;;;;;11.40;2.67;;;;;;;;;;4795095;30;20222;-90
2021/01/18 04:27:57;;;;;;;7.18;2.60;;;;;;;;;;4794186;30;20201;-90
2021/01/18 04:30:27;;;;;;;7.80;3.88;;;;;;;;;;4794047;30;20197;-90
2021/01/18 04:32:55;;;;;;;7.05;2.40;;;;;;;;;;4793881;30;20482;-90
2021/01/18 04:35:23;;;;;;;15.75;3.30;;;;;;;;;;4794104;30;20207;-91
2021/01/18 04:37:50;;;;;;;10.50;3.38;;;;;;;;;;4794211;30;20211;-90
2021/01/18 04:40:21;;;;;;;4.72;2.88;;;;;;;;;;4795105;30;20215;-89
2021/01/18 04:42:49;;;;;;;8.55;2.70;;;;;;;;;;4794871;30;20229;-90
2021/01/18 04:45:18;;;;;;;8.15;3.80;;;;;;;;;;4793986;30;20264;-91
2021/01/18 04:47:48;;;;;;;4.70;2.95;;;;;;;;;;4794051;30;20187;-91
2021/01/18 04:50:16;;;;;;;9.48;3.40;;;;;;;;;;4793414;29;20235;-91
2021/01/18 04:52:52;;;;;;;7.55;3.35;;;;;;;;;;4793501;30;20282;-91
2021/01/18 04:55:30;;;;;;;7.22;3.10;;;;;;;;;;4793599;30;20202;-89
2021/01/18 04:58:06;;;;;;;4.85;2.92;;;;;;;;;;4794346;30;20222;-91
2021/01/18 05:00:40;;;;;;;7.18;3.40;;;;;;;;;;4794672;30;20211;-90
2021/01/18 05:03:10;;;;;;;8.38;3.05;;;;;;;;;;4793539;30;20514;-91
2021/01/18 05:06:09;;;;;;;5.53;3.47;;;;;;;;;;4794311;30;20535;-90
2021/01/18 05:09:17;;;;;;;6.97;3.03;;;;;;;;;;4721840;30;20650;-91
2021/01/18 05:11:48;;;;;;;8.52;4.10;;;;;;;;;;4718739;30;20224;-91
2021/01/18 05:14:16;;;;;;;6.07;2.65;;;;;;;;;;4721610;30;20213;-89
2021/01/18 05:16:49;;;;;;;8.48;3.78;;;;;;;;;;4721200;30;20209;-89
2021/01/18 05:19:20;;;;;;;6.18;3.17;;;;;;;;;;4721299;30;20233;-90
2021/01/18 05:21:48;;;;;;;7.78;3.05;;;;;;;;;;4721591;30;20213;-90
2021/01/18 05:24:17;;;;;;;6.90;3.08;;;;;;;;;;4720968;30;20284;-90
2021/01/18 05:26:44;;;;;;;6.35;2.95;;;;;;;;;;4721248;30;20210;-90
2021/01/18 05:29:11;;;;;;;7.03;2.50;;;;;;;;;;4721487;30;20217;-90
2021/01/18 05:31:40;;;;;;;6.82;3.47;;;;;;;;;;4721114;30;20280;-91
2021/01/18 05:34:13;;;;;;;5.45;3.47;;;;;;;;;;4721330;30;20190;-90
2021/01/18 05:36:43;;;;;;;5.88;3.38;;;;;;;;;;4722024;30;20597;-90
2021/01/18 05:39:14;;;;;;;5.13;2.63;;;;;;;;;;4721819;30;20514;-89
2021/01/18 05:41:43;;;;;;;5.03;2.55;;;;;;;;;;4722059;30;20581;-90
2021/01/18 05:44:10;;;;;;;4.00;2.45;;;;;;;;;;4721417;30;20229;-89
2021/01/18 05:46:38;;;;;;;7.97;2.85;;;;;;;;;;4787841;30;20225;-88
2021/01/18 05:49:11;;;;;;;3.42;3.00;;;;;;;;;;4792535;29;20304;-89
2021/01/18 05:51:40;;;;;;;5.07;2.58;;;;;;;;;;4793019;30;20187;-89
2021/01/18 05:54:15;;;;;;;3.08;2.55;;;;;;;;;;4793251;30;20199;-88
2021/01/18 05:56:44;;;;;;;4.47;3.17;;;;;;;;;;4792920;30;20637;-89
2021/01/18 05:59:20;;;;;;;3.30;3.00;;;;;;;;;;4792929;30;20210;-90
2021/01/18 06:01:48;;;;;;;8.13;2.50;;;;;;;;;;4794139;30;20239;-90
2021/01/18 06:04:16;;;;;;;5.30;2.50;;;;;;;;;;4792963;30;20268;-88
2021/01/18 06:06:52;;;;;;;5.28;2.60;;;;;;;;;;4793258;30;20183;-90
2021/01/18 06:09:23;;;;;;;3.50;2.60;;;;;;;;;;4793856;30;20258;-92
2021/01/18 06:11:51;;;;;;;4.93;2.65;;;;;;;;;;4792622;30;20539;-89
2021/01/18 06:14:19;;;;;;;3.80;2.58;;;;;;;;;;4792680;30;20201;-91
2021/01/18 06:16:47;;;;;;;3.20;2.75;;;;;;;;;;4792814;30;20264;-89
2021/01/18 06:19:22;;;;;;;4.05;3.22;;;;;;;;;;4794268;29;20241;-90
2021/01/18 06:21:50;;;;;;;3.58;3.15;;;;;;;;;;4796412;30;20199;-91
2021/01/18 06:24:27;;;;;;;4.00;3.55;;;;;;;;;;4795786;30;20268;-90
2021/01/18 06:26:54;;;;;;;3.60;2.90;;;;;;;;;;4796047;30;20611;-89
2021/01/18 06:29:42;;;;;;;6.65;3.30;;;;;;;;;;4795736;30;20286;-89
2021/01/18 06:32:10;;;;;;;4.32;3.00;;;;;;;;;;4796011;30;20215;-89
2021/01/18 06:34:37;;;;;;;3.92;2.70;;;;;;;;;;4796670;30;20200;-89
2021/01/18 06:37:05;;;;;;;4.72;3.05;;;;;;;;;;4796135;30;20208;-89
2021/01/18 06:39:33;;;;;;;4.65;3.72;;;;;;;;;;4795594;30;20543;-89
2021/01/18 06:42:03;;;;;;;4.70;3.63;;;;;;;;;;4795474;30;20214;-89
2021/01/18 06:44:39;;;;;;;5.07;3.10;;;;;;;;;;4795794;30;20486;-89
2021/01/18 06:47:30;;;;;;;4.15;3.75;;;;;;;;;;4795427;30;20565;-90
2021/01/18 06:49:59;;;;;;;4.43;3.00;;;;;;;;;;4795303;29;20242;-89
2021/01/18 06:52:32;;;;;;;4.70;3.25;;;;;;;;;;4795576;30;20476;-89
2021/01/18 06:55:06;;;;;;;8.27;3.60;;;;;;;;;;4795741;30;20551;-89
2021/01/18 06:58:35;;;;;;;4.68;3.38;;;;;;;;;;4795619;30;20274;-88
2021/01/18 07:01:02;;;;;;;7.28;3.15;;;;;;;;;;4762482;30;20210;-90
2021/01/18 07:03:40;;;;;;;4.93;3.35;;;;;;;;;;4795623;30;20559;-91
2021/01/18 07:06:32;;;;;;;4.88;3.45;;;;;;;;;;4795542;30;20194;-91
2021/01/18 07:09:02;;;;;;;5.00;3.40;;;;;;;;;;4795725;30;20293;-90
2021/01/18 07:11:29;;;;;;;5.25;3.55;;;;;;;;;;4795458;30;20199;-90
2021/01/18 07:13:56;;;;;;;4.75;3.60;;;;;;;;;;4795094;30;20286;-90
2021/01/18 07:16:25;;;;;;;6.55;3.63;;;;;;;;;;4795119;30;20261;-90
2021/01/18 07:18:55;;;;;;;6.97;4.75;;;;;;;;;;4795536;29;20211;-90
2021/01/18 07:21:26;;;;;;;6.05;4.03;;;;;;;;;;4795432;30;20203;-90
2021/01/18 07:24:00;;;;;;;4.22;3.50;;;;;;;;;;4795109;30;20246;-90
2021/01/18 07:26:53;;;;;;;6.45;3.65;;;;;;;;;;4795152;30;20203;-89
2021/01/18 07:29:23;;;;;;;7.40;3.58;;;;;;;;;;4795321;29;20239;-90
2021/01/18 07:31:54;;;;;;;5.80;3.47;;;;;;;;;;4794931;30;20458;-89
2021/01/18 07:34:24;;;;;;;7.53;4.28;;;;;;;;;;4795422;29;20285;-90
2021/01/18 07:36:52;;;;;;;5.68;3.58;;;;;;;;;;4794887;30;20635;-91
2021/01/18 07:39:33;;;;;;;7.28;3.78;;;;;;;;;;4795058;30;20481;-89
2021/01/18 07:42:01;;;;;;;4.80;3.70;;;;;;;;;;4794949;30;20542;-89
2021/01/18 07:44:34;;;;;;;9.02;5.13;;;;;;;;;;4794800;30;20236;-90
2021/01/18 07:47:02;;;;;;;12.00;7.45;;;;;;;;;;4795427;30;20200;-90
2021/01/18 07:49:41;;;;;;;11.13;6.93;;;;;;;;;;4794222;29;20246;-90
2021/01/18 07:52:31;;;;;;;8.13;6.22;;;;;;;;;;4794647;30;20200;-89
2021/01/18 07:55:03;;;;;;;8.57;5.60;;;;;;;;;;4794639;30;20195;-87
2021/01/18 07:57:36;;;;;;;9.10;4.78;;;;;;;;;;4794551;30;20205;-88
2021/01/18 08:00:29;;;;;;;10.23;4.55;;;;;;;;;;4794539;30;20257;-89
2021/01/18 08:03:26;;;;;;;8.43;4.75;;;;;;;;;;4794244;30;20271;-88
2021/01/18 08:06:04;;;;;;;3.22;2.83;;;;;;;;;;4721668;30;20210;-90
2021/01/18 08:08:33;;;;;;;6.25;3.47;;;;;;;;;;4722447;30;20549;-90
2021/01/18 08:11:21;;;;;;;5.28;3.33;;;;;;;;;;4723095;30;20425;-90
2021/01/18 08:13:56;;;;;;;4.88;3.40;;;;;;;;;;4722052;30;20205;-88
2021/01/18 08:16:47;;;;;;;4.30;3.53;;;;;;;;;;4715522;30;20218;-92
2021/01/18 08:19:23;;;;;;;6.65;4.07;;;;;;;;;;4692585;30;20231;-90
2021/01/18 08:22:04;;;;;;;4.60;3.42;;;;;;;;;;4704835;30;20273;-89
2021/01/18 08:24:56;;;;;;;6.68;4.18;;;;;;;;;;4704919;30;20245;-89
2021/01/18 08:27:47;;;;;;;6.03;4.32;;;;;;;;;;4704435;30;20296;-90
2021/01/18 08:30:40;;;;;;;6.85;4.38;;;;;;;;;;4704395;30;20206;-89
2021/01/18 08:33:09;;;;;;;5.63;3.80;;;;;;;;;;4687294;30;20215;-89
2021/01/18 08:35:48;;;;;;;5.78;4.65;;;;;;;;;;4687095;30;20353;-89
2021/01/18 08:38:24;;;;;;;7.15;4.88;;;;;;;;;;4687640;30;20215;-91
2021/01/18 08:40:53;;;;;;;7.82;5.60;;;;;;;;;;4687382;30;20640;-89
2021/01/18 08:43:22;;;;;;;8.68;6.72;;;;;;;;;;4734606;30;20212;-91
2021/01/18 08:45:50;;;;;;;7.82;6.55;;;;;;;;;;4762732;30;20208;-91
2021/01/18 08:48:22;;;;;;;9.68;6.93;;;;;;;;;;4775601;30;20199;-91
2021/01/18 08:50:52;;;;;;;11.05;8.90;;;;;;;;;;4775200;30;20258;-91
2021/01/18 08:53:32;;;;;;;10.85;7.75;;;;;;;;;;4775837;30;20207;-91
2021/01/18 08:56:04;;;;;;;9.65;7.15;;;;;;;;;;4775821;30;20188;-90
2021/01/18 08:58:40;;;;;;;10.95;7.00;;;;;;;;;;4776573;30;20207;-89
2021/01/18 09:01:18;;;;;;;8.93;6.63;;;;;;;;;;4776112;30;20474;-90
2021/01/18 09:03:45;;;;;;;10.20;7.22;;;;;;;;;;4775994;30;20551;-86
2021/01/18 09:06:13;;;;;;;11.32;7.75;;;;;;;;;;4775360;30;20547;-90
2021/01/18 09:08:49;;;;;;;9.68;7.18;;;;;;;;;;4775878;30;20219;-90
2021/01/18 09:11:16;;;;;;;11.60;7.22;;;;;;;;;;4775791;30;20547;-90
2021/01/18 09:13:43;;;;;;;8.80;6.80;;;;;;;;;;4775437;30;20288;-90
2021/01/18 09:16:12;;;;;;;12.80;7.85;;;;;;;;;;4775628;30;20265;-90
2021/01/18 09:18:40;;;;;;;13.48;8.30;;;;;;;;;;4775331;30;20234;-89
2021/01/18 09:21:08;;;;;;;12.10;7.45;;;;;;;;;;4775931;30;20204;-89
2021/01/18 09:23:35;;;;;;;10.57;7.57;;;;;;;;;;4775372;30;20203;-91
2021/01/18 09:26:07;;;;;;;11.40;7.68;;;;;;;;;;4775666;30;20292;-90
2021/01/18 09:28:35;;;;;;;12.32;8.35;;;;;;;;;;4775309;30;20643;-90
2021/01/18 09:31:13;;;;;;;8.98;7.90;;;;;;;;;;4774978;30;20184;-90
2021/01/18 09:33:41;;;;;;;10.30;7.55;;;;;;;;;;4775410;30;20274;-91
2021/01/18 09:36:16;;;;;;;12.00;9.10;;;;;;;;;;4775821;30;20551;-90
2021/01/18 09:38:44;;;;;;;13.45;8.55;;;;;;;;;;4775019;30;20559;-90
2021/01/18 09:41:12;;;;;;;12.88;8.43;;;;;;;;;;4775277;30;20192;-89
2021/01/18 09:43:40;;;;;;;12.73;7.70;;;;;;;;;;4775478;30;20203;-90
2021/01/18 09:46:07;;;;;;;10.25;7.32;;;;;;;;;;4775189;30;20216;-90
2021/01/18 09:48:35;;;;;;;11.30;7.65;;;;;;;;;;4775165;30;20460;-90
2021/01/18 09:51:05;;;;;;;9.35;7.47;;;;;;;;;;4775461;30;20289;-90
2021/01/18 09:53:33;;;;;;;11.23;7.47;;;;;;;;;;4777313;30;20224;-89
2021/01/18 09:56:02;;;;;;;9.32;7.22;;;;;;;;;;4778541;30;20210;-89
2021/01/18 09:58:42;;;;;;;9.05;7.57;;;;;;;;;;4778524;30;20282;-90
2021/01/18 10:01:13;;;;;;;8.68;7.07;;;;;;;;;;4778806;30;20198;-89
2021/01/18 10:03:41;;;;;;;6.68;5.75;;;;;;;;;;4778361;30;20298;-89
2021/01/18 10:06:10;;;;;;;9.75;5.95;;;;;;;;;;4762647;30;20232;-89
2021/01/18 10:08:39;;;;;;;6.95;5.70;;;;;;;;;;4779152;30;20283;-90
2021/01/18 10:11:06;;;;;;;7.22;5.97;;;;;;;;;;4787956;30;20478;-89
2021/01/18 10:13:33;;;;;;;7.07;6.10;;;;;;;;;;4782669;30;20223;-88
2021/01/18 10:16:09;;;;;;;11.07;7.32;;;;;;;;;;4778407;30;20202;-87
2021/01/18 10:18:39;;;;;;;7.78;7.00;;;;;;;;;;4778477;30;20215;-89
2021/01/18 10:21:07;;;;;;;7.60;6.43;;;;;;;;;;4779019;30;20215;-89
2021/01/18 10:23:36;;;;;;;10.18;6.80;;;;;;;;;;4778027;30;20203;-89
2021/01/18 10:26:17;;;;;;;9.88;6.30;;;;;;;;;;4779339;30;20220;-88
2021/01/18 10:28:57;;;;;;;8.70;6.20;;;;;;;;;;4792198;30;20472;-89
2021/01/18 10:31:26;;;;;;;8.13;6.22;;;;;;;;;;4789379;30;20264;-86
2021/01/18 10:34:11;;;;;;;8.75;7.13;;;;;;;;;;4778023;30;20200;-87
2021/01/18 10:36:38;;;;;;;11.18;6.78;;;;;;;;;;4778834;30;20195;-88
2021/01/18 10:39:06;;;;;;;7.65;6.03;;;;;;;;;;4778723;30;20223;-88
2021/01/18 10:41:33;;;;;;;12.25;8.35;;;;;;;;;;4777854;30;20199;-86
2021/01/18 10:44:05;;;;;;;9.45;6.72;;;;;;;;;;4777949;30;20303;-88
2021/01/18 10:46:34;;;;;;;8.73;7.03;;;;;;;;;;4777838;30;20279;-87
2021/01/18 10:49:01;;;;;;;12.63;6.32;;;;;;;;;;4777237;30;20270;-88
2021/01/18 10:51:29;;;;;;;8.63;6.68;;;;;;;;;;4777782;30;20200;-87
2021/01/18 10:53:57;;;;;;;9.95;8.15;;;;;;;;;;4777827;30;20265;-88
2021/01/18 10:56:32;;;;;;;10.65;7.78;;;;;;;;;;4777733;30;20197;-88
2021/01/18 10:58:59;;;;;;;7.95;6.35;;;;;;;;;;4777534;30;20196;-87
2021/01/18 11:01:26;;;;;;;10.80;7.25;;;;;;;;;;4759603;30;20224;-89
2021/01/18 11:03:54;;;;;;;16.50;8.43;;;;;;;;;;4759316;30;20204;-85
2021/01/18 11:06:22;;;;;;;7.75;6.78;;;;;;;;;;4759070;30;20233;-86
2021/01/18 11:08:53;;;;;;;8.27;6.30;;;;;;;;;;4759562;30;20255;-87
2021/01/18 11:11:22;;;;;;;6.63;5.82;;;;;;;;;;4774197;30;20204;-87
2021/01/18 11:13:59;;;;;;;7.63;5.80;;;;;;;;;;4776808;30;20204;-87
2021/01/18 11:16:27;;;;;;;6.10;5.28;;;;;;;;;;4777205;30;20196;-87
2021/01/18 11:19:01;;;;;;;8.07;5.88;;;;;;;;;;4776641;30;20382;-87
2021/01/18 11:21:28;;;;;;;6.68;5.38;;;;;;;;;;4772391;30;20207;-88
2021/01/18 11:23:55;;;;;;;5.53;4.53;;;;;;;;;;4777370;30;20200;-86
2021/01/18 11:26:23;;;;;;;5.00;4.32;;;;;;;;;;4776757;30;20208;-85
2021/01/18 11:28:50;;;;;;;7.68;5.78;;;;;;;;;;4777295;30;20219;-89
2021/01/18 11:31:17;;;;;;;9.02;5.45;;;;;;;;;;4772952;30;20212;-85
2021/01/18 11:33:45;;;;;;;6.90;4.80;;;;;;;;;;4772009;30;20211;-87
2021/01/18 11:36:13;;;;;;;7.53;5.78;;;;;;;;;;4771992;30;20200;-85
2021/01/18 11:38:40;;;;;;;13.73;5.57;;;;;;;;;;4761482;30;20532;-86
2021/01/18 11:41:07;;;;;;;5.45;4.45;;;;;;;;;;4820366;24;20250;-85
2021/01/18 11:43:35;;;;;;;7.13;5.22;;;;;;;;;;4787734;29;20465;-86
2021/01/18 11:46:02;;;;;;;5.90;4.65;;;;;;;;;;4793816;30;20230;-86
2021/01/18 11:48:29;;;;;;;5.32;4.78;;;;;;;;;;4794356;30;20199;-86
2021/01/18 11:50:56;;;;;;;6.68;3.88;;;;;;;;;;4793850;30;20199;-86
2021/01/18 11:53:24;;;;;;;7.38;4.22;;;;;;;;;;4794117;29;20287;-85
2021/01/18 11:55:51;;;;;;;5.90;4.18;;;;;;;;;;4794177;30;20191;-85
2021/01/18 11:58:18;;;;;;;5.88;3.67;;;;;;;;;;4793688;30;20278;-85
2021/01/18 12:00:46;;;;;;;3.78;3.30;;;;;;;;;;4786521;29;20220;-83
2021/01/18 12:03:13;;;;;;;4.82;3.88;;;;;;;;;;4801693;29;20309;-87
2021/01/18 12:05:39;;;;;;;5.43;4.68;;;;;;;;;;4780251;30;20537;-86
2021/01/18 12:08:06;;;;;;;6.95;4.82;;;;;;;;;;4793234;30;20203;-86
2021/01/18 12:10:35;;;;;;;6.18;4.40;;;;;;;;;;4793191;30;20207;-87
2021/01/18 12:13:03;;;;;;;8.40;4.88;;;;;;;;;;4775759;30;20197;-85
2021/01/18 12:15:30;;;;;;;5.40;4.32;;;;;;;;;;4770842;30;20224;-85
2021/01/18 12:17:57;;;;;;;8.13;4.75;;;;;;;;;;4712794;30;20591;-88
2021/01/18 12:20:24;;;;;;;6.68;5.28;;;;;;;;;;4759603;30;20587;-85
2021/01/18 12:22:53;;;;;;;5.28;4.38;;;;;;;;;;4775672;30;20188;-85
2021/01/18 12:25:21;;;;;;;8.30;5.53;;;;;;;;;;4757704;30;20568;-86
2021/01/18 12:27:52;;;;;;;5.30;4.80;;;;;;;;;;4758031;30;20197;-86
2021/01/18 12:30:20;;;;;;;7.93;4.53;;;;;;;;;;4757823;30;20212;-86
2021/01/18 12:32:47;;;;;;;6.72;4.80;;;;;;;;;;4757025;30;20656;-86
2021/01/18 12:35:15;;;;;;;8.02;5.45;;;;;;;;;;4757700;30;20209;-86
2021/01/18 12:37:53;;;;;;;6.53;4.90;;;;;;;;;;5136323;27;20601;-87
2021/01/18 12:40:20;;;;;;;6.97;4.60;;;;;;;;;;5135788;28;20187;-88
2021/01/18 12:42:49;;;;;;;5.47;4.97;;;;;;;;;;5136135;27;20588;-86
2021/01/18 12:45:17;;;;;;;7.85;5.60;;;;;;;;;;5136480;27;20187;-86
2021/01/18 12:47:45;;;;;;;14.18;5.85;;;;;;;;;;5135592;27;20334;-86
2021/01/18 12:50:12;;;;;;;7.97;6.07;;;;;;;;;;5136457;27;20194;-86
2021/01/18 12:52:42;;;;;;;8.85;5.55;;;;;;;;;;5127998;27;20217;-85
2021/01/18 12:55:11;;;;;;;6.50;5.22;;;;;;;;;;5124169;28;20582;-86
2021/01/18 12:57:38;;;;;;;8.27;6.15;;;;;;;;;;5127632;27;20281;-86
2021/01/18 13:00:08;;;;;;;6.45;5.20;;;;;;;;;;5135755;27;20206;-85
2021/01/18 13:02:38;;;;;;;5.95;5.35;;;;;;;;;;5135205;27;20259;-87
2021/01/18 13:05:07;;;;;;;6.38;5.78;;;;;;;;;;5127148;27;20198;-85
2021/01/18 13:07:33;;;;;;;8.40;5.75;;;;;;;;;;5123066;28;20195;-85
2021/01/18 13:10:00;;;;;;;6.57;5.40;;;;;;;;;;5135702;27;20188;-85
2021/01/18 13:12:28;;;;;;;6.90;6.15;;;;;;;;;;5135639;27;20215;-86
2021/01/18 13:14:55;;;;;;;8.15;5.68;;;;;;;;;;5126102;27;20203;-88
2021/01/18 13:17:22;;;;;;;6.28;5.65;;;;;;;;;;5133993;28;20211;-85
2021/01/18 13:19:49;;;;;;;6.05;5.40;;;;;;;;;;5134415;27;20461;-85
2021/01/18 13:22:16;;;;;;;6.45;5.18;;;;;;;;;;5135556;28;20195;-85
2021/01/18 13:24:43;;;;;;;7.68;5.43;;;;;;;;;;5114999;28;20172;-86
2021/01/18 13:27:10;;;;;;;5.15;4.43;;;;;;;;;;5124479;28;20187;-85
2021/01/18 13:29:38;;;;;;;7.43;5.88;;;;;;;;;;5099944;28;20611;-87
2021/01/18 13:32:05;;;;;;;5.55;5.05;;;;;;;;;;5135511;28;20183;-86
2021/01/18 13:34:32;;;;;;;6.78;5.68;;;;;;;;;;5134733;28;20214;-85
2021/01/18 13:36:59;;;;;;;11.25;6.10;;;;;;;;;;5134804;27;20303;-86
2021/01/18 13:39:25;;;;;;;7.00;6.28;;;;;;;;;;5135096;27;20568;-85
2021/01/18 13:41:53;;;;;;;6.03;5.43;;;;;;;;;;5133745;27;20227;-86
2021/01/18 13:44:19;;;;;;;9.73;5.95;;;;;;;;;;5135003;28;20187;-85
2021/01/18 13:46:47;;;;;;;6.20;5.03;;;;;;;;;;5134738;28;20184;-85
2021/01/18 13:49:15;;;;;;;6.57;5.30;;;;;;;;;;5121003;27;20202;-85
2021/01/18 13:51:42;;;;;;;7.85;6.72;;;;;;;;;;5120505;28;20209;-86
2021/01/18 13:54:09;;;;;;;7.43;5.82;;;;;;;;;;5120371;28;20180;-85
2021/01/18 13:56:36;;;;;;;7.93;6.00;;;;;;;;;;5121211;28;20226;-85
2021/01/18 13:59:03;;;;;;;5.75;5.05;;;;;;;;;;5121356;28;20188;-86
2021/01/18 14:01:30;;;;;;;6.78;4.95;;;;;;;;;;5121357;28;20188;-86
2021/01/18 14:04:00;;;;;;;7.38;5.72;;;;;;;;;;5120442;28;20198;-84
2021/01/18 14:06:28;;;;;;;6.10;5.50;;;;;;;;;;5121064;28;20180;-86
2021/01/18 14:08:57;;;;;;;6.35;5.57;;;;;;;;;;5121007;28;20189;-85
2021/01/18 14:11:33;;;;;;;7.43;6.10;;;;;;;;;;5119596;28;20223;-86
2021/01/18 14:14:01;;;;;;;6.78;5.53;;;;;;;;;;5120904;28;20198;-85
2021/01/18 14:16:28;;;;;;;6.40;5.68;;;;;;;;;;5120841;28;20208;-85
2021/01/18 14:18:56;;;;;;;6.93;5.97;;;;;;;;;;5119785;28;20214;-86
2021/01/18 14:21:24;;;;;;;6.72;6.03;;;;;;;;;;5120682;28;20200;-85
2021/01/18 14:23:52;;;;;;;6.35;5.70;;;;;;;;;;5120610;28;20190;-85
2021/01/18 14:26:23;;;;;;;6.80;5.32;;;;;;;;;;5120029;28;20200;-85
2021/01/18 14:28:51;;;;;;;6.88;5.70;;;;;;;;;;5120719;28;20332;-84
2021/01/18 14:31:22;;;;;;;6.07;4.95;;;;;;;;;;5119687;28;20195;-88
2021/01/18 14:33:49;;;;;;;6.95;5.53;;;;;;;;;;5120491;28;20617;-85
2021/01/18 14:36:18;;;;;;;6.18;5.20;;;;;;;;;;5116943;28;20224;-85
2021/01/18 14:38:45;;;;;;;6.38;5.78;;;;;;;;;;5109056;28;20203;-85
2021/01/18 14:41:18;;;;;;;7.25;5.43;;;;;;;;;;5102497;28;20250;-83
2021/01/18 14:43:45;;;;;;;5.32;4.70;;;;;;;;;;5108605;28;20192;-85
2021/01/18 14:46:12;;;;;;;5.88;5.18;;;;;;;;;;5110549;28;20203;-85
2021/01/18 14:48:39;;;;;;;4.97;4.47;;;;;;;;;;5115580;28;20200;-85
2021/01/18 14:51:06;;;;;;;5.28;4.85;;;;;;;;;;5119611;28;20180;-85
2021/01/18 14:53:34;;;;;;;6.18;4.70;;;;;;;;;;5120236;28;20244;-85
2021/01/18 14:56:01;;;;;;;5.55;4.80;;;;;;;;;;5120267;27;20184;-85
2021/01/18 14:58:28;;;;;;;6.05;5.40;;;;;;;;;;5119205;28;20211;-85
2021/01/18 15:00:55;;;;;;;6.13;4.20;;;;;;;;;;5118932;28;20184;-86
2021/01/18 15:03:22;;;;;;;4.75;4.13;;;;;;;;;;5119874;28;20278;-85
2021/01/18 15:05:50;;;;;;;5.75;4.53;;;;;;;;;;5118564;28;20252;-85